Terminal Aerodrome Forecast
Issued by NWS

Home | Current Version | Previous Version | Text Only | Print | Product List | Glossary On
Versions: 1 2 3 4 5 6 7 8 9 10 11 12 13 14 15 16 17 18 19 20 21 22 23 24
000
FTUS45 KGJT 181120
TAFEGE
TAF
KEGE 181120Z 1812/1912 VRB03KT 6SM BR BKN025 OVC035
     FM181730 VRB03KT P6SM SCT035
     FM190400 VRB03KT P6SM OVC050
      AMD LTD TO CLD VIS AND WIND TIL 181300=

USA.gov is the U.S. government's official web portal to all federal, state and local government web resources and services.